Time;durP1;ratioP1;P1;durP2;ratioP2;P2;SDS_P1;SDS_P2;PMS_P1;PMS_P2;Temp;Humidity;BMP_temperature;BMP_pressure;BME280_temperature;BME280_humidity;BME280_pressure;Samples;Min_cycle;Max_cycle;Signal;HPM_P1;HPM_P2
2021/07/14 00:00:07;;;;;;;;;;;;;;;26.48;53.41;100572.37;1788353;79;20241;-50
2021/07/14 00:02:35;;;;;;;;;;;;;;;26.47;53.44;100574.35;1793817;78;20215;-49
2021/07/14 00:05:03;;;;;;;;;;;;;;;26.48;53.45;100575.17;1773809;79;20204;-51
2021/07/14 00:07:29;;;;;;;;;;;;;;;26.48;53.47;100577.95;1766654;79;20214;-49
2021/07/14 00:09:55;;;;;;;;;;;;;;;26.48;53.47;100578.73;1774733;79;21026;-53
2021/07/14 00:12:21;;;;;;;;;;;;;;;26.50;53.48;100580.59;1772726;79;20282;-52
2021/07/14 00:15:03;;;;;;;;;;;;;;;26.50;53.49;100582.57;1772361;79;20176;-50
2021/07/14 00:17:36;;;;;;;;;;;;;;;26.51;53.51;100578.03;1762317;79;20209;-51
2021/07/14 00:22:37;;;;;;;;;;;;;;;26.52;53.54;100583.03;1770405;79;21118;-49
2021/07/14 00:25:06;;;;;;;;;;;;;;;26.51;53.55;100582.80;1775572;79;20154;-51
2021/07/14 00:27:32;;;;;;;;;;;;;;;26.52;53.55;100580.23;1770090;80;20215;-49
2021/07/14 00:30:07;;;;;;;;;;;;;;;26.53;53.55;100575.67;1796466;78;20762;-49
2021/07/14 00:32:27;;;;;;;;;;;;;;;26.53;53.58;100569.28;1791507;78;20347;-52
2021/07/14 00:34:53;;;;;;;;;;;;;;;26.53;53.58;100566.49;1767812;79;21130;-48
2021/07/14 00:37:19;;;;;;;;;;;;;;;26.53;53.59;100567.30;1763046;79;20547;-49
2021/07/14 00:39:47;;;;;;;;;;;;;;;26.54;53.63;100580.09;1765810;79;20422;-49
2021/07/14 00:42:13;;;;;;;;;;;;;;;26.54;53.63;100572.30;1749114;80;21792;-51
2021/07/14 00:44:40;;;;;;;;;;;;;;;26.54;53.64;100575.09;1777287;79;20188;-51
2021/07/14 00:47:06;;;;;;;;;;;;;;;26.55;53.65;100583.69;1795747;79;21078;-49
2021/07/14 00:49:33;;;;;;;;;;;;;;;26.54;53.66;100580.09;1795064;79;20116;-50
2021/07/14 00:51:59;;;;;;;;;;;;;;;26.56;53.69;100585.31;1789639;79;20195;-53
2021/07/14 00:54:25;;;;;;;;;;;;;;;26.55;53.68;100577.53;1770571;79;20219;-49
2021/07/14 00:56:51;;;;;;;;;;;;;;;26.56;53.69;100572.17;1794738;79;20190;-50
2021/07/14 00:59:16;;;;;;;;;;;;;;;26.57;53.71;100573.77;1780317;79;21308;-48
2021/07/14 01:01:46;;;;;;;;;;;;;;;26.57;53.71;100570.17;1784888;79;20939;-49
2021/07/14 01:04:14;;;;;;;;;;;;;;;26.57;53.73;100568.19;1784728;79;20187;-50
2021/07/14 01:06:54;;;;;;;;;;;;;;;26.58;53.73;100575.98;1781932;79;20187;-49
2021/07/14 01:09:26;;;;;;;;;;;;;;;26.58;53.73;100574.58;1791215;78;20255;-50
2021/07/14 01:11:54;;;;;;;;;;;;;;;26.58;53.74;100574.00;1763167;80;21181;-49
2021/07/14 01:14:22;;;;;;;;;;;;;;;26.59;53.75;100574.81;1760394;80;20237;-49
2021/07/14 01:16:58;;;;;;;;;;;;;;;26.59;53.74;100575.63;1790185;78;20474;-50
2021/07/14 01:20:02;;;;;;;;;;;;;;;26.60;53.75;100578.65;1792468;78;20169;-50
2021/07/14 01:22:48;;;;;;;;;;;;;;;26.61;53.77;100580.83;1787938;78;20556;-48
2021/07/14 01:25:30;;;;;;;;;;;;;;;26.59;53.76;100575.63;1788013;78;22333;-52
2021/07/14 01:27:58;;;;;;;;;;;;;;;26.59;53.75;100577.02;1785015;78;20257;-48
2021/07/14 01:30:24;;;;;;;;;;;;;;;26.61;53.78;100580.83;1796613;78;20160;-49
2021/07/14 01:32:50;;;;;;;;;;;;;;;26.60;53.81;100580.05;1760578;80;20386;-51
2021/07/14 01:35:22;;;;;;;;;;;;;;;26.61;53.80;100578.03;1746646;80;20159;-52
2021/07/14 01:37:49;;;;;;;;;;;;;;;26.61;53.82;100576.64;1758143;80;21274;-48
2021/07/14 01:40:16;;;;;;;;;;;;;;;26.60;53.85;100580.05;1771888;80;20175;-50
2021/07/14 01:42:44;;;;;;;;;;;;;;;26.61;53.86;100582.22;1771585;80;20461;-48
2021/07/14 01:45:12;;;;;;;;;;;;;;;26.61;53.87;100581.63;1765929;80;21661;-50
2021/07/14 01:47:38;;;;;;;;;;;;;;;26.61;53.90;100582.22;1768231;80;20176;-50
2021/07/14 01:50:04;;;;;;;;;;;;;;;26.62;53.90;100586.63;1768991;80;21080;-50
2021/07/14 01:52:30;;;;;;;;;;;;;;;26.62;53.92;100581.05;1769516;80;20172;-49
2021/07/14 01:54:58;;;;;;;;;;;;;;;26.62;53.93;100575.47;1772330;80;20461;-48
2021/07/14 01:57:26;;;;;;;;;;;;;;;26.62;53.93;100583.84;1770122;80;20200;-50
2021/07/14 01:59:52;;;;;;;;;;;;;;;26.62;53.94;100574.89;1738147;80;20469;-48
2021/07/14 02:02:19;;;;;;;;;;;;;;;26.62;53.96;100577.68;1766899;80;22001;-49
2021/07/14 02:04:45;;;;;;;;;;;;;;;26.63;53.98;100578.49;1763922;80;20252;-49
2021/07/14 02:07:12;;;;;;;;;;;;;;;26.63;53.99;100576.52;1761935;80;20753;-51
2021/07/14 02:09:39;;;;;;;;;;;;;;;26.63;53.99;100579.30;1762920;80;20218;-48
2021/07/14 02:12:26;;;;;;;;;;;;;;;26.64;54.03;100577.33;1785796;79;20185;-49
2021/07/14 02:15:01;;;;;;;;;;;;;;;26.63;54.05;100580.70;1786732;78;21299;-49
2021/07/14 02:17:30;;;;;;;;;;;;;;;26.63;54.05;100585.47;1758229;80;20082;-49
2021/07/14 02:19:59;;;;;;;;;;;;;;;26.64;54.08;100587.09;1762139;80;20167;-51
2021/07/14 02:22:29;;;;;;;;;;;;;;;26.62;54.09;100587.45;1772778;78;20174;-50
2021/07/14 02:24:55;;;;;;;;;;;;;;;26.62;54.07;100583.27;1770955;79;20155;-48
2021/07/14 02:27:21;;;;;;;;;;;;;;;26.63;54.11;100586.28;1772171;78;21103;-52
2021/07/14 02:29:50;;;;;;;;;;;;;;;26.63;54.13;100587.67;1776392;78;20206;-48
2021/07/14 02:32:20;;;;;;;;;;;;;;;26.63;54.16;100589.07;1768492;78;20192;-48
2021/07/14 02:34:47;;;;;;;;;;;;;;;26.63;54.18;100586.28;1773653;78;20331;-48
2021/07/14 02:37:15;;;;;;;;;;;;;;;26.64;54.18;100593.48;1770683;78;20236;-48
2021/07/14 02:39:43;;;;;;;;;;;;;;;26.63;54.21;100590.47;1773151;78;22114;-48
2021/07/14 02:42:11;;;;;;;;;;;;;;;26.63;54.23;100592.45;1770600;78;20450;-48
2021/07/14 02:44:39;;;;;;;;;;;;;;;26.63;54.24;100593.84;1770251;78;20236;-49
2021/07/14 02:47:05;;;;;;;;;;;;;;;26.64;54.28;100596.86;1773622;78;20175;-49
2021/07/14 02:49:32;;;;;;;;;;;;;;;26.64;54.28;100594.07;1743459;80;20200;-51
2021/07/14 02:51:58;;;;;;;;;;;;;;;26.63;54.31;100593.26;1771607;78;21178;-50
2021/07/14 02:54:26;;;;;;;;;;;;;;;26.64;54.33;100596.28;1770727;78;20794;-51
2021/07/14 02:56:56;;;;;;;;;;;;;;;26.64;54.36;100591.28;1772660;78;20208;-49
2021/07/14 02:59:24;;;;;;;;;;;;;;;26.64;54.37;100592.67;1774245;78;20490;-49
2021/07/14 03:01:50;;;;;;;;;;;;;;;26.63;54.39;100593.84;1770758;78;20231;-50
2021/07/14 03:04:16;;;;;;;;;;;;;;;26.64;54.42;100601.05;1772533;78;21179;-50
2021/07/14 03:06:42;;;;;;;;;;;;;;;26.65;54.42;100597.88;1773654;78;20847;-50
2021/07/14 03:09:08;;;;;;;;;;;;;;;26.65;54.44;100598.48;1739833;80;20195;-50
2021/07/14 03:11:36;;;;;;;;;;;;;;;26.64;54.47;100596.28;1767949;78;20202;-52
2021/07/14 03:14:03;;;;;;;;;;;;;;;26.64;54.49;100594.07;1772805;78;20481;-50
2021/07/14 03:16:29;;;;;;;;;;;;;;;26.64;54.50;100592.09;1765217;78;21098;-52
2021/07/14 03:18:55;;;;;;;;;;;;;;;26.65;54.54;100595.70;1768878;78;20204;-49
2021/07/14 03:21:21;;;;;;;;;;;;;;;26.65;54.55;100598.48;1775989;78;20299;-51
2021/07/14 03:23:47;;;;;;;;;;;;;;;26.64;54.57;100597.67;1773257;79;20679;-49
2021/07/14 03:26:13;;;;;;;;;;;;;;;26.64;54.60;100592.67;1772754;78;20493;-49
2021/07/14 03:28:40;;;;;;;;;;;;;;;26.65;54.62;100599.27;1721439;80;21069;-51
2021/07/14 03:31:07;;;;;;;;;;;;;;;26.65;54.64;100596.48;1769905;78;20171;-50
2021/07/14 03:33:33;;;;;;;;;;;;;;;26.65;54.64;100595.70;1770044;79;20168;-49
2021/07/14 03:35:59;;;;;;;;;;;;;;;26.66;54.67;100604.27;1767178;78;20178;-51
2021/07/14 03:38:28;;;;;;;;;;;;;;;26.65;54.69;100599.27;1772057;78;20223;-50
2021/07/14 03:40:55;;;;;;;;;;;;;;;26.65;54.69;100601.28;1770352;78;21145;-49
2021/07/14 03:43:21;;;;;;;;;;;;;;;26.66;54.74;100603.69;1770644;79;20504;-49
2021/07/14 03:45:46;;;;;;;;;;;;;;;26.65;54.75;100603.45;1770542;78;20408;-51
2021/07/14 03:48:18;;;;;;;;;;;;;;;26.65;54.77;100609.03;1742380;79;20196;-49
2021/07/14 03:50:49;;;;;;;;;;;;;;;26.66;54.79;100612.64;1716308;80;20239;-51
2021/07/14 03:53:17;;;;;;;;;;;;;;;26.66;54.83;100612.64;1772332;78;21303;-52
2021/07/14 03:55:45;;;;;;;;;;;;;;;26.65;54.85;100611.83;1767818;78;20166;-49
2021/07/14 03:58:10;;;;;;;;;;;;;;;26.65;54.89;100609.03;1768470;78;20230;-54
2021/07/14 04:00:37;;;;;;;;;;;;;;;26.66;54.99;100611.24;1771314;78;20393;-52
2021/07/14 04:03:03;;;;;;;;;;;;;;;26.67;55.08;100619.27;1774367;78;20418;-50
2021/07/14 04:05:29;;;;;;;;;;;;;;;26.70;55.09;100616.31;1772460;78;21076;-48
2021/07/14 04:07:55;;;;;;;;;;;;;;;26.73;55.13;100618.41;1771135;78;20321;-54
2021/07/14 04:10:20;;;;;;;;;;;;;;;26.77;55.19;100626.27;1771528;78;20278;-55
2021/07/14 04:12:47;;;;;;;;;;;;;;;26.82;55.22;100638.52;1766407;78;20241;-55
2021/07/14 04:15:13;;;;;;;;;;;;;;;26.87;55.27;100630.48;1775208;78;20813;-55
2021/07/14 04:17:38;;;;;;;;;;;;;;;26.92;55.27;100633.81;1774405;78;21196;-55
2021/07/14 04:20:06;;;;;;;;;;;;;;;26.97;55.32;100639.12;1773807;78;20287;-55
2021/07/14 04:22:32;;;;;;;;;;;;;;;27.02;55.33;100638.84;1710826;80;20437;-51
2021/07/14 04:24:59;;;;;;;;;;;;;;;27.08;55.36;100636.55;1773482;78;20725;-52
2021/07/14 04:27:26;;;;;;;;;;;;;;;27.14;55.38;100640.67;1770717;78;20215;-53
2021/07/14 04:29:52;;;;;;;;;;;;;;;27.18;55.33;100642.95;1772558;78;21036;-50
2021/07/14 04:32:18;;;;;;;;;;;;;;;27.21;55.29;100643.03;1768688;78;20207;-53
2021/07/14 04:34:43;;;;;;;;;;;;;;;27.22;55.22;100645.23;1770848;78;20182;-49
2021/07/14 04:37:09;;;;;;;;;;;;;;;27.24;55.13;100651.28;1776720;78;20178;-52
2021/07/14 04:39:35;;;;;;;;;;;;;;;27.24;55.05;100657.65;1771964;78;20224;-49
2021/07/14 04:42:01;;;;;;;;;;;;;;;27.25;55.02;100662.66;1773323;78;21086;-48
2021/07/14 04:44:47;;;;;;;;;;;;;;;27.24;54.95;100659.66;1769732;78;21444;-51
2021/07/14 04:47:01;;;;;;;;;;;;;;;27.22;54.93;100664.20;1770335;78;20189;-52
2021/07/14 04:49:27;;;;;;;;;;;;;;;27.21;54.91;100665.95;1773703;79;20318;-50
2021/07/14 04:51:53;;;;;;;;;;;;;;;27.19;54.92;100669.72;1771810;78;20494;-52
2021/07/14 04:54:19;;;;;;;;;;;;;;;27.17;54.94;100674.84;1770433;78;21086;-52
2021/07/14 04:56:49;;;;;;;;;;;;;;;27.15;54.99;100674.42;1770645;78;20222;-55
2021/07/14 04:59:12;;;;;;;;;;;;;;;27.12;55.02;100676.52;1769469;79;20458;-57
2021/07/14 05:01:38;;;;;;;;;;;;;;;27.10;55.07;100675.52;1774821;79;20260;-55
2021/07/14 05:04:04;;;;;;;;;;;;;;;27.07;55.09;100683.23;1774063;78;20241;-56
2021/07/14 05:06:30;;;;;;;;;;;;;;;27.05;55.08;100689.75;1772883;78;21149;-55
2021/07/14 05:08:57;;;;;;;;;;;;;;;27.03;55.08;100692.09;1770144;78;20162;-55
2021/07/14 05:11:23;;;;;;;;;;;;;;;27.02;55.14;100695.27;1765852;79;20391;-49
2021/07/14 05:13:49;;;;;;;;;;;;;;;27.00;55.17;100701.78;1770997;78;20159;-53
2021/07/14 05:16:15;;;;;;;;;;;;;;;26.98;55.24;100701.36;1774606;78;20182;-49
2021/07/14 05:18:41;;;;;;;;;;;;;;;26.96;55.29;100703.11;1766674;78;21092;-49
2021/07/14 05:21:07;;;;;;;;;;;;;;;26.94;55.34;100698.48;1768369;78;20340;-49
2021/07/14 05:23:33;;;;;;;;;;;;;;;26.92;55.38;100702.22;1776988;78;20274;-49
2021/07/14 05:26:00;;;;;;;;;;;;;;;26.91;55.43;100704.77;1741020;78;20188;-49
2021/07/14 05:28:26;;;;;;;;;;;;;;;26.91;55.46;100706.75;1764433;79;20203;-54
2021/07/14 05:30:52;;;;;;;;;;;;;;;26.89;55.49;100707.14;1771026;78;21168;-55
2021/07/14 05:33:18;;;;;;;;;;;;;;;26.88;55.53;100710.28;1772015;78;20129;-54
2021/07/14 05:35:45;;;;;;;;;;;;;;;26.80;55.44;100711.48;1767047;79;20212;-54
2021/07/14 05:38:18;;;;;;;;;;;;;;;26.74;55.38;100714.89;1768918;78;20219;-53
2021/07/14 05:40:39;;;;;;;;;;;;;;;26.63;55.39;100717.44;1770638;78;20211;-54
2021/07/14 05:43:05;;;;;;;;;;;;;;;26.53;55.42;100710.18;1770814;78;21137;-55
2021/07/14 05:45:31;;;;;;;;;;;;;;;26.45;55.41;100715.36;1773064;78;20221;-53
2021/07/14 05:47:57;;;;;;;;;;;;;;;26.36;55.38;100718.32;1765163;78;20756;-53
2021/07/14 05:50:23;;;;;;;;;;;;;;;26.29;55.34;100716.17;1773286;79;20665;-53
2021/07/14 05:52:49;;;;;;;;;;;;;;;26.22;55.29;100717.39;1771573;78;20153;-54
2021/07/14 05:55:15;;;;;;;;;;;;;;;26.14;55.23;100714.13;1769655;78;21072;-54
2021/07/14 05:57:41;;;;;;;;;;;;;;;26.06;55.14;100715.69;1773408;79;20262;-53
2021/07/14 06:00:08;;;;;;;;;;;;;;;25.99;55.08;100720.49;1774723;78;20702;-56
2021/07/14 06:02:34;;;;;;;;;;;;;;;25.95;55.10;100716.80;1771688;78;20248;-54
2021/07/14 06:05:00;;;;;;;;;;;;;;;25.92;55.02;100717.52;1770778;78;20170;-53
2021/07/14 06:07:25;;;;;;;;;;;;;;;25.88;54.91;100718.82;1771214;78;20950;-54
2021/07/14 06:09:51;;;;;;;;;;;;;;;25.84;54.81;100722.06;1774084;79;20772;-54
2021/07/14 06:12:20;;;;;;;;;;;;;;;25.78;54.68;100727.67;1772463;78;20263;-52
2021/07/14 06:14:49;;;;;;;;;;;;;;;25.75;54.59;100731.19;1773143;78;20338;-54
2021/07/14 06:17:14;;;;;;;;;;;;;;;25.71;54.51;100723.30;1770703;78;20415;-53
2021/07/14 06:19:40;;;;;;;;;;;;;;;25.67;54.34;100725.76;1771374;78;22123;-54
2021/07/14 06:22:06;;;;;;;;;;;;;;;25.61;54.25;100727.97;1769395;78;21604;-53
2021/07/14 06:24:32;;;;;;;;;;;;;;;25.62;54.33;100728.79;1769033;78;20170;-55
2021/07/14 06:26:58;;;;;;;;;;;;;;;25.66;54.38;100726.91;1773408;78;20200;-54
2021/07/14 06:29:24;;;;;;;;;;;;;;;25.73;54.39;100734.08;1770888;78;20745;-54
2021/07/14 06:31:50;;;;;;;;;;;;;;;25.77;54.38;100731.63;1774318;78;21211;-54
2021/07/14 06:34:16;;;;;;;;;;;;;;;25.82;54.37;100734.16;1770573;78;20216;-55
2021/07/14 06:36:43;;;;;;;;;;;;;;;25.87;54.37;100728.92;1774662;78;20193;-54
2021/07/14 06:39:08;;;;;;;;;;;;;;;25.91;54.40;100735.41;1767648;78;20223;-54
2021/07/14 06:41:34;;;;;;;;;;;;;;;25.95;54.41;100734.92;1777757;78;20206;-51
2021/07/14 06:44:01;;;;;;;;;;;;;;;25.98;54.47;100734.20;1770503;78;21014;-54
2021/07/14 06:46:27;;;;;;;;;;;;;;;26.01;54.47;100728.52;1774708;78;20241;-55
2021/07/14 06:48:54;;;;;;;;;;;;;;;26.04;54.54;100727.79;1775545;78;20191;-55
2021/07/14 06:51:20;;;;;;;;;;;;;;;26.07;54.59;100728.46;1772650;78;20262;-55
2021/07/14 06:53:45;;;;;;;;;;;;;;;26.09;54.62;100724.75;1771093;78;20364;-54
2021/07/14 06:56:11;;;;;;;;;;;;;;;26.11;54.67;100719.61;1771553;78;21080;-53
2021/07/14 06:58:39;;;;;;;;;;;;;;;26.12;54.72;100724.84;1771711;78;20296;-54
2021/07/14 07:01:05;;;;;;;;;;;;;;;26.14;54.72;100721.70;1774370;78;20135;-55
2021/07/14 07:03:31;;;;;;;;;;;;;;;26.16;54.77;100723.53;1771326;78;20464;-56
2021/07/14 07:05:57;;;;;;;;;;;;;;;26.16;54.82;100721.56;1774245;78;20157;-53
2021/07/14 07:08:23;;;;;;;;;;;;;;;26.19;54.83;100722.23;1775329;78;21132;-54
2021/07/14 07:10:49;;;;;;;;;;;;;;;26.20;54.87;100715.52;1772583;78;20182;-55
2021/07/14 07:13:18;;;;;;;;;;;;;;;26.21;54.89;100715.76;1769130;78;20505;-55
2021/07/14 07:15:48;;;;;;;;;;;;;;;26.23;54.94;100715.37;1772336;78;20453;-54
2021/07/14 07:18:14;;;;;;;;;;;;;;;26.25;54.96;100715.27;1772666;78;20221;-55
2021/07/14 07:20:40;;;;;;;;;;;;;;;26.26;54.99;100718.87;1775515;78;23263;-56
2021/07/14 07:23:06;;;;;;;;;;;;;;;26.26;55.01;100716.89;1772846;78;20171;-54
2021/07/14 07:25:33;;;;;;;;;;;;;;;26.27;55.04;100716.28;1772183;78;20219;-55
2021/07/14 07:28:01;;;;;;;;;;;;;;;26.28;55.05;100716.52;1772588;78;20171;-55
2021/07/14 07:30:31;;;;;;;;;;;;;;;26.30;55.06;100719.20;1770570;78;20412;-55
2021/07/14 07:32:55;;;;;;;;;;;;;;;26.30;55.07;100719.77;1775828;78;21321;-55
2021/07/14 07:35:21;;;;;;;;;;;;;;;26.32;55.13;100723.00;1768288;78;20142;-51
2021/07/14 07:37:47;;;;;;;;;;;;;;;26.32;55.15;100712.66;1772865;79;20312;-55
2021/07/14 07:40:13;;;;;;;;;;;;;;;26.33;55.17;100722.65;1772008;78;21550;-53
2021/07/14 07:42:40;;;;;;;;;;;;;;;26.33;55.16;100724.05;1773618;79;20446;-55
2021/07/14 07:45:07;;;;;;;;;;;;;;;26.34;55.19;100717.30;1768452;78;21012;-54
2021/07/14 07:47:34;;;;;;;;;;;;;;;26.34;55.20;100714.52;1771847;78;20135;-53
2021/07/14 07:50:00;;;;;;;;;;;;;;;26.35;55.21;100720.91;1774969;78;20125;-55
2021/07/14 07:52:27;;;;;;;;;;;;;;;26.37;55.24;100725.53;1771709;78;20184;-54
2021/07/14 07:54:55;;;;;;;;;;;;;;;26.36;55.25;100728.08;1771323;78;20507;-55
2021/07/14 07:57:21;;;;;;;;;;;;;;;26.37;55.24;100715.77;1772830;78;21300;-53
2021/07/14 07:59:47;;;;;;;;;;;;;;;26.39;55.30;100716.81;1771865;78;20422;-55
2021/07/14 08:02:13;;;;;;;;;;;;;;;26.39;55.30;100716.81;1772671;80;20160;-55
2021/07/14 08:04:39;;;;;;;;;;;;;;;26.40;55.31;100716.44;1769299;80;20251;-55
2021/07/14 08:07:05;;;;;;;;;;;;;;;26.40;55.30;100710.04;1770171;80;20275;-55
2021/07/14 08:09:31;;;;;;;;;;;;;;;26.42;55.34;100714.69;1770007;80;21162;-55
2021/07/14 08:11:57;;;;;;;;;;;;;;;26.42;55.34;100704.92;1768838;80;21166;-55
2021/07/14 08:14:23;;;;;;;;;;;;;;;26.41;55.35;100709.69;1769887;80;20172;-55
2021/07/14 08:16:49;;;;;;;;;;;;;;;26.43;55.35;100712.13;1772606;80;20239;-55
2021/07/14 08:19:15;;;;;;;;;;;;;;;26.44;55.36;100708.18;1770717;80;20207;-55
2021/07/14 08:21:41;;;;;;;;;;;;;;;26.45;55.38;100705.59;1772809;80;21133;-54
2021/07/14 08:24:07;;;;;;;;;;;;;;;26.46;55.37;100696.06;1772635;80;20199;-55
2021/07/14 08:26:33;;;;;;;;;;;;;;;26.46;55.38;100698.85;1774918;80;20143;-55
2021/07/14 08:28:59;;;;;;;;;;;;;;;26.45;55.38;100699.43;1774166;80;21807;-54
2021/07/14 08:31:25;;;;;;;;;;;;;;;26.46;55.37;100703.85;1768015;79;20422;-55
2021/07/14 08:33:51;;;;;;;;;;;;;;;26.47;55.39;100706.06;1768993;79;21142;-55
2021/07/14 08:36:17;;;;;;;;;;;;;;;26.48;55.40;100704.89;1765641;80;20406;-55
2021/07/14 08:38:43;;;;;;;;;;;;;;;26.49;55.43;100700.33;1770058;79;20234;-52
2021/07/14 08:41:10;;;;;;;;;;;;;;;26.48;55.46;100701.49;1772959;80;20172;-54
2021/07/14 08:43:38;;;;;;;;;;;;;;;26.50;55.48;100705.33;1771715;79;20201;-47
2021/07/14 08:46:04;;;;;;;;;;;;;;;26.50;55.51;100703.35;1770417;80;21885;-48
2021/07/14 08:48:30;;;;;;;;;;;;;;;26.52;55.49;100709.36;1770039;80;20194;-47
2021/07/14 08:50:59;;;;;;;;;;;;;;;26.52;55.50;100700.22;1726162;80;20331;-47
2021/07/14 08:53:26;;;;;;;;;;;;;;;26.53;55.52;100696.23;1772129;80;20199;-50
2021/07/14 08:55:52;;;;;;;;;;;;;;;26.54;55.49;100697.86;1767716;80;20631;-47
2021/07/14 08:58:19;;;;;;;;;;;;;;;26.55;55.48;100696.70;1773906;80;22009;-48
2021/07/14 09:00:46;;;;;;;;;;;;;;;26.54;55.47;100704.25;1768149;79;20202;-47
2021/07/14 09:03:12;;;;;;;;;;;;;;;26.56;55.45;100702.50;1770029;78;20562;-47
2021/07/14 09:05:38;;;;;;;;;;;;;;;26.57;55.44;100701.31;1774473;78;21032;-47
2021/07/14 09:08:04;;;;;;;;;;;;;;;26.56;55.42;100699.13;1771656;78;20244;-50
2021/07/14 09:10:30;;;;;;;;;;;;;;;26.58;55.42;100701.55;1776387;78;21230;-48
2021/07/14 09:12:57;;;;;;;;;;;;;;;26.58;55.40;100695.96;1775111;78;20214;-49
2021/07/14 09:15:26;;;;;;;;;;;;;;;26.58;55.42;100698.17;1775327;78;20141;-48
2021/07/14 09:17:54;;;;;;;;;;;;;;;26.59;55.37;100697.01;1773938;78;20272;-49
2021/07/14 09:20:30;;;;;;;;;;;;;;;26.61;55.37;100704.41;1776095;78;20148;-47
2021/07/14 09:23:12;;;;;;;;;;;;;;;26.61;55.35;100701.63;1771990;78;21211;-48
2021/07/14 09:25:47;;;;;;;;;;;;;;;26.62;55.34;100706.05;1775659;78;20141;-47
2021/07/14 09:28:14;;;;;;;;;;;;;;;26.63;55.33;100708.25;1767355;79;20309;-48
2021/07/14 09:30:41;;;;;;;;;;;;;;;26.63;55.30;100705.46;1771471;78;20195;-47
2021/07/14 09:33:09;;;;;;;;;;;;;;;26.63;55.30;100706.28;1776625;78;20192;-48
2021/07/14 09:35:46;;;;;;;;;;;;;;;26.65;55.28;100711.50;1774975;78;22037;-50
2021/07/14 09:38:14;;;;;;;;;;;;;;;26.66;55.27;100709.73;1764606;78;20435;-48
2021/07/14 09:40:43;;;;;;;;;;;;;;;26.66;55.26;100710.31;1769516;78;20207;-50
2021/07/14 09:43:12;;;;;;;;;;;;;;;26.67;55.25;100713.34;1774256;78;20187;-49
2021/07/14 09:45:54;;;;;;;;;;;;;;;26.68;55.21;100710.78;1772347;78;20237;-51
2021/07/14 09:48:35;;;;;;;;;;;;;;;26.70;55.23;100707.02;1771850;78;21051;-50
2021/07/14 09:51:12;;;;;;;;;;;;;;;26.69;55.22;100696.44;1771453;78;20215;-49
2021/07/14 09:53:45;;;;;;;;;;;;;;;26.70;55.22;100693.88;1770482;78;20200;-48
2021/07/14 09:56:14;;;;;;;;;;;;;;;26.71;55.20;100696.09;1771013;78;20207;-50
2021/07/14 09:58:40;;;;;;;;;;;;;;;26.72;55.18;100697.72;1769743;78;20337;-50
2021/07/14 10:01:06;;;;;;;;;;;;;;;26.71;55.20;100691.32;1772109;78;21074;-51
2021/07/14 10:03:34;;;;;;;;;;;;;;;26.73;55.19;100697.95;1769475;78;20477;-48
2021/07/14 10:06:05;;;;;;;;;;;;;;;26.73;55.22;100698.73;1755601;80;20186;-49
2021/07/14 10:08:33;;;;;;;;;;;;;;;26.74;55.25;100695.36;1779132;79;20187;-48
2021/07/14 10:11:16;;;;;;;;;;;;;;;26.74;55.28;100690.59;1777597;79;20446;-48
2021/07/14 10:13:54;;;;;;;;;;;;;;;26.75;55.31;100690.00;1779756;79;21142;-50
2021/07/14 10:16:21;;;;;;;;;;;;;;;26.75;55.32;100692.80;1775930;79;20466;-47
2021/07/14 10:18:57;;;;;;;;;;;;;;;26.76;55.32;100690.23;1779657;79;20184;-47
2021/07/14 10:21:23;;;;;;;;;;;;;;;26.77;55.32;100679.30;1777540;79;20376;-48
2021/07/14 10:23:49;;;;;;;;;;;;;;;26.77;55.33;100687.67;1780549;79;20206;-47
2021/07/14 10:26:15;;;;;;;;;;;;;;;26.79;55.34;100679.73;1779405;79;21186;-48
2021/07/14 10:28:43;;;;;;;;;;;;;;;26.79;55.34;100674.15;1781094;79;20591;-47
2021/07/14 10:31:08;;;;;;;;;;;;;;;26.81;55.36;100680.20;1780063;79;20215;-48
2021/07/14 10:33:35;;;;;;;;;;;;;;;26.80;55.36;100673.80;1778562;79;20155;-47
2021/07/14 10:36:00;;;;;;;;;;;;;;;26.82;55.37;100674.81;1779912;79;20203;-49
2021/07/14 10:38:27;;;;;;;;;;;;;;;26.84;55.38;100679.46;1773198;79;21097;-47
2021/07/14 10:40:54;;;;;;;;;;;;;;;26.84;55.40;100672.48;1773876;79;20212;-48
2021/07/14 10:43:25;;;;;;;;;;;;;;;26.85;55.40;100685.30;1776108;79;20189;-48
2021/07/14 10:45:51;;;;;;;;;;;;;;;26.86;55.39;100675.77;1776219;79;20456;-49
2021/07/14 10:48:20;;;;;;;;;;;;;;;26.88;55.43;100671.20;1779465;79;20228;-48
2021/07/14 10:50:49;;;;;;;;;;;;;;;26.89;55.44;100669.45;1773535;79;21322;-49
2021/07/14 10:53:16;;;;;;;;;;;;;;;26.91;55.43;100667.67;1772432;79;20149;-48
2021/07/14 10:55:43;;;;;;;;;;;;;;;26.91;55.44;100669.88;1757876;80;20202;-48
2021/07/14 10:58:10;;;;;;;;;;;;;;;26.92;55.45;100658.94;1762971;80;20179;-49
2021/07/14 11:00:38;;;;;;;;;;;;;;;26.93;55.45;100668.94;1765268;80;20581;-48
2021/07/14 11:03:04;;;;;;;;;;;;;;;26.94;55.45;100663.59;1763293;80;21085;-50
2021/07/14 11:05:36;;;;;;;;;;;;;;;26.95;55.44;100654.02;1766072;80;20275;-52
2021/07/14 11:08:03;;;;;;;;;;;;;;;26.96;55.46;100645.87;1757514;80;20221;-51
2021/07/14 11:10:34;;;;;;;;;;;;;;;26.97;55.52;100648.08;1785943;78;20191;-49
2021/07/14 11:13:02;;;;;;;;;;;;;;;26.99;55.53;100652.72;1750071;80;20151;-50
2021/07/14 11:15:33;;;;;;;;;;;;;;;27.00;55.55;100644.55;1781384;78;21250;-48
2021/07/14 11:18:02;;;;;;;;;;;;;;;27.01;55.53;100644.77;1754123;80;20223;-47
2021/07/14 11:20:38;;;;;;;;;;;;;;;27.03;55.54;100646.63;1766289;79;20207;-48
2021/07/14 11:23:18;;;;;;;;;;;;;;;27.03;55.56;100647.41;1774313;79;20231;-48
2021/07/14 11:25:52;;;;;;;;;;;;;;;27.03;55.55;100646.02;1772046;79;20371;-50
2021/07/14 11:28:18;;;;;;;;;;;;;;;27.06;55.56;100650.08;1772706;79;23287;-51
2021/07/14 11:30:48;;;;;;;;;;;;;;;27.05;55.59;100646.47;1776742;79;20203;-47
2021/07/14 11:33:34;;;;;;;;;;;;;;;27.08;55.58;100649.11;1774377;79;20236;-47
2021/07/14 11:36:07;;;;;;;;;;;;;;;27.09;55.60;100638.98;1783084;79;20618;-49
2021/07/14 11:38:48;;;;;;;;;;;;;;;27.09;55.58;100633.39;1767363;79;20141;-47
2021/07/14 11:41:24;;;;;;;;;;;;;;;27.12;55.60;100629.86;1776470;79;21763;-49
2021/07/14 11:43:56;;;;;;;;;;;;;;;27.14;55.59;100628.92;1768779;79;20178;-48
2021/07/14 11:46:27;;;;;;;;;;;;;;;27.16;55.58;100622.95;1773220;79;20176;-49
2021/07/14 11:49:06;;;;;;;;;;;;;;;27.16;55.58;100622.37;1774039;79;20231;-47
2021/07/14 11:51:38;;;;;;;;;;;;;;;27.19;55.60;100632.02;1777539;79;20222;-47
2021/07/14 11:54:21;;;;;;;;;;;;;;;27.19;55.57;100621.66;1775182;79;21232;-47
2021/07/14 11:56:51;;;;;;;;;;;;;;;27.22;55.59;100620.09;1778818;79;20164;-51
2021/07/14 11:59:22;;;;;;;;;;;;;;;27.23;55.58;100618.93;1748608;79;20084;-50
2021/07/14 12:01:59;;;;;;;;;;;;;;;27.25;55.57;100612.38;1744034;79;20140;-48
2021/07/14 12:04:25;;;;;;;;;;;;;;;27.24;55.56;100610.16;1779585;79;20228;-50
2021/07/14 12:06:53;;;;;;;;;;;;;;;27.25;55.54;100615.17;1777765;79;21128;-47
2021/07/14 12:09:22;;;;;;;;;;;;;;;27.28;55.57;100618.64;1775647;79;20241;-48
2021/07/14 12:12:03;;;;;;;;;;;;;;;27.30;55.57;100616.86;1773990;79;20429;-48
2021/07/14 12:14:33;;;;;;;;;;;;;;;27.32;55.55;100617.31;1777493;79;20104;-52
2021/07/14 12:17:07;;;;;;;;;;;;;;;27.33;55.54;100608.55;1777962;79;20715;-48
2021/07/14 12:19:35;;;;;;;;;;;;;;;27.34;55.53;100615.76;1776263;79;21150;-52
2021/07/14 12:22:05;;;;;;;;;;;;;;;27.34;55.56;100606.56;1779972;79;20881;-50
2021/07/14 12:24:37;;;;;;;;;;;;;;;27.34;55.58;100613.55;1766330;79;20309;-48
2021/07/14 12:27:09;;;;;;;;;;;;;;;27.37;55.57;100610.82;1775811;79;20858;-48
2021/07/14 12:29:36;;;;;;;;;;;;;;;27.41;55.56;100605.33;1778038;79;20191;-52
2021/07/14 12:32:03;;;;;;;;;;;;;;;27.45;55.59;100605.63;1772561;79;20991;-48
2021/07/14 12:34:30;;;;;;;;;;;;;;;27.51;55.67;100599.16;1770964;79;21004;-49
2021/07/14 12:36:56;;;;;;;;;;;;;;;27.56;55.67;100603.05;1779346;79;20172;-49
2021/07/14 12:39:30;;;;;;;;;;;;;;;27.62;55.70;100604.38;1775166;79;21658;-48
2021/07/14 12:41:57;;;;;;;;;;;;;;;27.67;55.69;100604.05;1773426;79;20221;-48